LFRK/CFR METAR and TAF weather

Enter ICAO airport designator
Station Type Date Time Source
LFRK METAR 2021/01/17 19:30 UTC NOAA

LFRK 171930Z AUTO 25008KT 9999 SCT026 BKN240 04/02 Q1028 TEMPO 3000 BR


Station Type Date Time Source
LFRK Decoded METAR 2021/01/17 19:30 UTC NOAA

Caen, France (LFRK) 49-11N 000-27W 67M
Jan 17, 2021 - 02:30 PM EST / 2021.01.17 1930 UTC
Wind: from the WSW (250 degrees) at 9 MPH (8 KT):0
Visibility: greater than 7 mile(s):0
Sky conditions: mostly cloudy
Temperature: 39 F (4 C)
Dew Point: 35 F (2 C)
Relative Humidity: 86%
Pressure (altimeter): 30.36 in. Hg (1028 hPa)
ob: LFRK 171930Z AUTO 25008KT 9999 SCT026 BKN240 04/02 Q1028 TEMPO 3000 BR
cycle: 19

Station Type Date Time Source
LFRK TAF 2020/06/02 06:24 UTC NOAA

TAF LFRK 020500Z 0206/0306 33004KT CAVOK

Example: see airport list